Terminal Aerodrome Forecast
Issued by NWS

Home | Current Version | Previous Version | Text Only | Print | Product List | Glossary On
Versions: 1 2 3 4 5 6 7 8 9 10 11 12 13 14 15 16 17 18 19 20 21 22 23 24 25 26 27 28
830
FTUS41 KBTV 130818 AAA
TAFRUT
TAF AMD
KRUT 130818Z 1308/1406 26007KT 4SM -SHSN BR BKN015 BKN040
     FM131200 29013G20KT 2SM -SHSN BR OVC045
     FM131600 28014G23KT P6SM VCSH OVC050
     FM132200 28015G26KT P6SM BKN070
     FM140000 27012G18KT P6SM FEW110=

USA.gov is the U.S. government's official web portal to all federal, state and local government web resources and services.